<?xml version='1.0' encoding='UTF-8'?>
<gpx xmlns="http://www.topografix.com/GPX/1/1" creator="www.balnam.be" version="1.1" xmlns:xsi="http://www.w3.org/2001/XMLSchema-instance" xsi:schemaLocation="http://www.topografix.com/GPX/1/1 http://www.topografix.com/GPX/1/1/gpx.xsd">
<trk>
<name>lhtlr1</name>
<cmt>v</cmt>
<desc>Liers Chemin n°1 Chaussée Brunehault</desc>
<link href="https://chemins.be/liers/chemin/1"/><trkseg>
<trkpt lat="50.695197" lon="5.562041"><time>2026-05-02T20:17:59Z</time></trkpt>
<trkpt lat="50.694279" lon="5.561802"><time>2026-05-02T20:27:59Z</time></trkpt>
<trkpt lat="50.694001" lon="5.562201"><time>2026-05-02T20:37:59Z</time></trkpt>
<trkpt lat="50.693791" lon="5.561834"><time>2026-05-02T20:47:59Z</time></trkpt>
</trkseg></trk>
<trk>
<name>lhtlr1</name>
<cmt>b</cmt>
<desc>Liers Chemin n°1 Chaussée Brunehault</desc>
<link href="https://chemins.be/liers/chemin/1"/><trkseg>
<trkpt lat="50.693791" lon="5.561834"><time>2026-05-02T20:47:59Z</time></trkpt>
<trkpt lat="50.693371" lon="5.561180"><time>2026-05-02T20:57:59Z</time></trkpt>
</trkseg></trk>
<trk>
<name>lhtlr1</name>
<cmt>d</cmt>
<desc>Liers Chemin n°1 Chaussée Brunehault</desc>
<link href="https://chemins.be/liers/chemin/1"/><trkseg>
<trkpt lat="50.693371" lon="5.561180"><time>2026-05-02T20:57:59Z</time></trkpt>
<trkpt lat="50.692864" lon="5.560475"><time>2026-05-02T21:07:59Z</time></trkpt>
</trkseg>
</trk>
<trk>
<name>lhtlr11</name>
<cmt>r</cmt>
<desc>Liers Chemin n°11 Ruelle d’elle Gatte / Voie du Vinave / Voie de Derrère / La Barrière</desc>
<link href="https://chemins.be/liers/chemin/11"/><trkseg>
<trkpt lat="50.700205" lon="5.570742"><time>2026-05-02T20:17:59Z</time></trkpt>
<trkpt lat="50.699090" lon="5.570219"><time>2026-05-02T20:27:59Z</time></trkpt>
</trkseg></trk>
<trk>
<name>lhtlr11</name>
<cmt>v</cmt>
<desc>Liers Chemin n°11 Ruelle d’elle Gatte / Voie du Vinave / Voie de Derrère / La Barrière</desc>
<link href="https://chemins.be/liers/chemin/11"/><trkseg>
<trkpt lat="50.699090" lon="5.570219"><time>2026-05-02T20:27:59Z</time></trkpt>
<trkpt lat="50.698351" lon="5.570536"><time>2026-05-02T20:37:59Z</time></trkpt>
</trkseg></trk>
<trk>
<name>lhtlr11</name>
<cmt>s</cmt>
<desc>Liers Chemin n°11 Ruelle d’elle Gatte / Voie du Vinave / Voie de Derrère / La Barrière</desc>
<link href="https://chemins.be/liers/chemin/11"/><trkseg>
<trkpt lat="50.698351" lon="5.570536"><time>2026-05-02T20:37:59Z</time></trkpt>
<trkpt lat="50.697372" lon="5.570416"><time>2026-05-02T20:47:59Z</time></trkpt>
</trkseg></trk>
<trk>
<name>lhtlr11</name>
<cmt>r</cmt>
<desc>Liers Chemin n°11 Ruelle d’elle Gatte / Voie du Vinave / Voie de Derrère / La Barrière</desc>
<link href="https://chemins.be/liers/chemin/11"/><trkseg>
<trkpt lat="50.697372" lon="5.570416"><time>2026-05-02T20:47:59Z</time></trkpt>
<trkpt lat="50.696671" lon="5.570588"><time>2026-05-02T20:57:59Z</time></trkpt>
<trkpt lat="50.696058" lon="5.571210"><time>2026-05-02T21:07:59Z</time></trkpt>
<trkpt lat="50.693949" lon="5.571708"><time>2026-05-02T21:17:59Z</time></trkpt>
<trkpt lat="50.692785" lon="5.570592"><time>2026-05-02T21:27:59Z</time></trkpt>
</trkseg></trk>
<trk>
<name>lhtlr11</name>
<cmt>q</cmt>
<desc>Liers Chemin n°11 Ruelle d’elle Gatte / Voie du Vinave / Voie de Derrère / La Barrière</desc>
<link href="https://chemins.be/liers/chemin/11"/><trkseg>
<trkpt lat="50.692785" lon="5.570592"><time>2026-05-02T21:27:59Z</time></trkpt>
<trkpt lat="50.690745" lon="5.570287"><time>2026-05-02T21:37:59Z</time></trkpt>
</trkseg></trk>
<trk>
<name>lhtlr11</name>
<cmt>r</cmt>
<desc>Liers Chemin n°11 Ruelle d’elle Gatte / Voie du Vinave / Voie de Derrère / La Barrière</desc>
<link href="https://chemins.be/liers/chemin/11"/><trkseg>
<trkpt lat="50.690745" lon="5.570287"><time>2026-05-02T21:37:59Z</time></trkpt>
<trkpt lat="50.690248" lon="5.570111"><time>2026-05-02T21:47:59Z</time></trkpt>
<trkpt lat="50.689431" lon="5.569111"><time>2026-05-02T21:57:59Z</time></trkpt>
</trkseg></trk>
<trk>
<name>lhtlr11</name>
<cmt>v</cmt>
<desc>Liers Chemin n°11 Ruelle d’elle Gatte / Voie du Vinave / Voie de Derrère / La Barrière</desc>
<link href="https://chemins.be/liers/chemin/11"/><trkseg>
<trkpt lat="50.689431" lon="5.569111"><time>2026-05-02T21:57:59Z</time></trkpt>
<trkpt lat="50.688512" lon="5.567098"><time>2026-05-02T22:07:59Z</time></trkpt>
</trkseg></trk>
<trk>
<name>lhtlr11</name>
<cmt>r</cmt>
<desc>Liers Chemin n°11 Ruelle d’elle Gatte / Voie du Vinave / Voie de Derrère / La Barrière</desc>
<link href="https://chemins.be/liers/chemin/11"/><trkseg>
<trkpt lat="50.688512" lon="5.567098"><time>2026-05-02T22:07:59Z</time></trkpt>
<trkpt lat="50.687539" lon="5.566394"><time>2026-05-02T22:17:59Z</time></trkpt>
<trkpt lat="50.686469" lon="5.565505"><time>2026-05-02T22:27:59Z</time></trkpt>
</trkseg></trk>
<trk>
<name>lhtlr11</name>
<cmt>v</cmt>
<desc>Liers Chemin n°11 Ruelle d’elle Gatte / Voie du Vinave / Voie de Derrère / La Barrière</desc>
<link href="https://chemins.be/liers/chemin/11"/><trkseg>
<trkpt lat="50.686469" lon="5.565505"><time>2026-05-02T22:27:59Z</time></trkpt>
<trkpt lat="50.686092" lon="5.565262"><time>2026-05-02T22:37:59Z</time></trkpt>
<trkpt lat="50.682125" lon="5.564856"><time>2026-05-02T22:47:59Z</time></trkpt>
</trkseg>
</trk>
<trk>
<name>lhtlr13</name>
<cmt>s</cmt>
<desc>Liers Sentier n°13 </desc>
<link href="https://chemins.be/liers/sentier/13"/><trkseg>
<trkpt lat="50.697124" lon="5.568300"><time>2026-05-02T20:17:59Z</time></trkpt>
<trkpt lat="50.696588" lon="5.571167"><time>2026-05-02T20:27:59Z</time></trkpt>
</trkseg>
</trk>
<trk>
<name>lhtlr14</name>
<cmt>v</cmt>
<desc>Liers Chemin n°14 Ruelle du Greffier</desc>
<link href="https://chemins.be/liers/chemin/14"/><trkseg>
<trkpt lat="50.693044" lon="5.566285"><time>2026-05-02T20:17:59Z</time></trkpt>
<trkpt lat="50.692981" lon="5.567212"><time>2026-05-02T20:27:59Z</time></trkpt>
<trkpt lat="50.692995" lon="5.567968"><time>2026-05-02T20:37:59Z</time></trkpt>
</trkseg>
</trk>
<trk>
<name>lhtlr15</name>
<cmt>v</cmt>
<desc>Liers Chemin n°15 Ruelle du Bot</desc>
<link href="https://chemins.be/liers/chemin/15"/><trkseg>
<trkpt lat="50.690885" lon="5.566749"><time>2026-05-02T20:17:59Z</time></trkpt>
<trkpt lat="50.691334" lon="5.567397"><time>2026-05-02T20:27:59Z</time></trkpt>
<trkpt lat="50.691799" lon="5.567764"><time>2026-05-02T20:37:59Z</time></trkpt>
<trkpt lat="50.692114" lon="5.567847"><time>2026-05-02T20:47:59Z</time></trkpt>
<trkpt lat="50.692443" lon="5.567920"><time>2026-05-02T20:57:59Z</time></trkpt>
<trkpt lat="50.692993" lon="5.567977"><time>2026-05-02T21:07:59Z</time></trkpt>
<trkpt lat="50.693431" lon="5.568030"><time>2026-05-02T21:17:59Z</time></trkpt>
<trkpt lat="50.693800" lon="5.567618"><time>2026-05-02T21:27:59Z</time></trkpt>
</trkseg>
</trk>
<trk>
<name>lhtlr19</name>
<cmt>q</cmt>
<desc>Liers Sentier n°19 Passay de l’Abbaye</desc>
<link href="https://chemins.be/liers/sentier/19"/><trkseg>
<trkpt lat="50.703802" lon="5.568438"><time>2026-05-02T20:17:59Z</time></trkpt>
<trkpt lat="50.703129" lon="5.567473"><time>2026-05-02T20:27:59Z</time></trkpt>
<trkpt lat="50.701861" lon="5.565657"><time>2026-05-02T20:37:59Z</time></trkpt>
<trkpt lat="50.699029" lon="5.563640"><time>2026-05-02T20:47:59Z</time></trkpt>
</trkseg></trk>
<trk>
<name>lhtlr19</name>
<cmt>s</cmt>
<desc>Liers Sentier n°19 Passay de l’Abbaye</desc>
<link href="https://chemins.be/liers/sentier/19"/><trkseg>
<trkpt lat="50.699029" lon="5.563640"><time>2026-05-02T20:47:59Z</time></trkpt>
<trkpt lat="50.698141" lon="5.563393"><time>2026-05-02T20:57:59Z</time></trkpt>
</trkseg></trk>
<trk>
<name>lhtlr19</name>
<cmt>q</cmt>
<desc>Liers Sentier n°19 Passay de l’Abbaye</desc>
<link href="https://chemins.be/liers/sentier/19"/><trkseg>
<trkpt lat="50.698141" lon="5.563393"><time>2026-05-02T20:57:59Z</time></trkpt>
<trkpt lat="50.697175" lon="5.563125"><time>2026-05-02T21:07:59Z</time></trkpt>
<trkpt lat="50.695696" lon="5.562764"><time>2026-05-02T21:17:59Z</time></trkpt>
</trkseg>
</trk>
<trk>
<name>lhtlr2</name>
<cmt>v</cmt>
<desc>Liers Chemin n°2 Voie du Vinave / Visé-Voie</desc>
<link href="https://chemins.be/liers/chemin/2"/><trkseg>
<trkpt lat="50.693848" lon="5.571725"><time>2026-05-02T20:17:59Z</time></trkpt>
<trkpt lat="50.694849" lon="5.574233"><time>2026-05-02T20:27:59Z</time></trkpt>
<trkpt lat="50.695691" lon="5.576566"><time>2026-05-02T20:37:59Z</time></trkpt>
</trkseg></trk>
<trk>
<name>lhtlr2</name>
<cmt>s</cmt>
<desc>Liers Chemin n°2 Voie du Vinave / Visé-Voie</desc>
<link href="https://chemins.be/liers/chemin/2"/><trkseg>
<trkpt lat="50.695691" lon="5.576566"><time>2026-05-02T20:37:59Z</time></trkpt>
<trkpt lat="50.698132" lon="5.582342"><time>2026-05-02T20:47:59Z</time></trkpt>
</trkseg>
</trk>
<trk>
<name>lhtlr20</name>
<cmt>q</cmt>
<desc>Liers Sentier n°20 Labouxhe</desc>
<link href="https://chemins.be/liers/sentier/20"/><trkseg>
<trkpt lat="50.701961" lon="5.568931"><time>2026-05-02T20:17:59Z</time></trkpt>
<trkpt lat="50.701738" lon="5.569626"><time>2026-05-02T20:27:59Z</time></trkpt>
<trkpt lat="50.702694" lon="5.570118"><time>2026-05-02T20:37:59Z</time></trkpt>
<trkpt lat="50.704700" lon="5.572347"><time>2026-05-02T20:47:59Z</time></trkpt>
</trkseg>
</trk>
<trk>
<name>lhtlr21</name>
<cmt>d</cmt>
<desc>Liers Sentier n°21 Pasay du Fond de Liers / Pasay de Philomé</desc>
<link href="https://chemins.be/liers/sentier/21"/><trkseg>
<trkpt lat="50.693794" lon="5.571682"><time>2026-05-02T20:17:59Z</time></trkpt>
<trkpt lat="50.693625" lon="5.572176"><time>2026-05-02T20:27:59Z</time></trkpt>
<trkpt lat="50.693272" lon="5.572557"><time>2026-05-02T20:37:59Z</time></trkpt>
<trkpt lat="50.692432" lon="5.573072"><time>2026-05-02T20:47:59Z</time></trkpt>
</trkseg></trk>
<trk>
<name>lhtlr21</name>
<cmt>v</cmt>
<desc>Liers Sentier n°21 Pasay du Fond de Liers / Pasay de Philomé</desc>
<link href="https://chemins.be/liers/sentier/21"/><trkseg>
<trkpt lat="50.692432" lon="5.573072"><time>2026-05-02T20:47:59Z</time></trkpt>
<trkpt lat="50.691638" lon="5.573179"><time>2026-05-02T20:57:59Z</time></trkpt>
<trkpt lat="50.690860" lon="5.573282"><time>2026-05-02T21:07:59Z</time></trkpt>
<trkpt lat="50.690480" lon="5.572705"><time>2026-05-02T21:17:59Z</time></trkpt>
</trkseg></trk>
<trk>
<name>lhtlr21</name>
<cmt>b</cmt>
<desc>Liers Sentier n°21 Pasay du Fond de Liers / Pasay de Philomé</desc>
<link href="https://chemins.be/liers/sentier/21"/><trkseg>
<trkpt lat="50.690480" lon="5.572705"><time>2026-05-02T21:17:59Z</time></trkpt>
<trkpt lat="50.690015" lon="5.572503"><time>2026-05-02T21:27:59Z</time></trkpt>
<trkpt lat="50.689944" lon="5.572942"><time>2026-05-02T21:37:59Z</time></trkpt>
</trkseg></trk>
<trk>
<name>lhtlr21</name>
<cmt>d</cmt>
<desc>Liers Sentier n°21 Pasay du Fond de Liers / Pasay de Philomé</desc>
<link href="https://chemins.be/liers/sentier/21"/><trkseg>
<trkpt lat="50.689944" lon="5.572942"><time>2026-05-02T21:37:59Z</time></trkpt>
<trkpt lat="50.689504" lon="5.572738"><time>2026-05-02T21:47:59Z</time></trkpt>
<trkpt lat="50.688171" lon="5.570729"><time>2026-05-02T21:57:59Z</time></trkpt>
<trkpt lat="50.686524" lon="5.567948"><time>2026-05-02T22:07:59Z</time></trkpt>
<trkpt lat="50.686186" lon="5.568017"><time>2026-05-02T22:17:59Z</time></trkpt>
<trkpt lat="50.683777" lon="5.565073"><time>2026-05-02T22:27:59Z</time></trkpt>
</trkseg>
</trk>
<trk>
<name>lhtlr22</name>
<cmt>s</cmt>
<desc>Liers Sentier n°22 </desc>
<link href="https://chemins.be/liers/sentier/22"/><trkseg>
<trkpt lat="50.685988" lon="5.577956"><time>2026-05-02T20:17:59Z</time></trkpt>
<trkpt lat="50.689407" lon="5.576785"><time>2026-05-02T20:27:59Z</time></trkpt>
<trkpt lat="50.689972" lon="5.575918"><time>2026-05-02T20:37:59Z</time></trkpt>
</trkseg>
</trk>
<trk>
<name>lhtlr23</name>
<cmt>b</cmt>
<desc>Liers Sentier n°23 Pasay de la Commenne</desc>
<link href="https://chemins.be/liers/sentier/23"/><trkseg>
<trkpt lat="50.688439" lon="5.567019"><time>2026-05-02T20:17:59Z</time></trkpt>
<trkpt lat="50.688426" lon="5.565747"><time>2026-05-02T20:27:59Z</time></trkpt>
<trkpt lat="50.689032" lon="5.564713"><time>2026-05-02T20:37:59Z</time></trkpt>
</trkseg></trk>
<trk>
<name>lhtlr23</name>
<cmt>d</cmt>
<desc>Liers Sentier n°23 Pasay de la Commenne</desc>
<link href="https://chemins.be/liers/sentier/23"/><trkseg>
<trkpt lat="50.689032" lon="5.564713"><time>2026-05-02T20:37:59Z</time></trkpt>
<trkpt lat="50.689299" lon="5.564256"><time>2026-05-02T20:47:59Z</time></trkpt>
<trkpt lat="50.689960" lon="5.563585"><time>2026-05-02T20:57:59Z</time></trkpt>
<trkpt lat="50.690679" lon="5.562966"><time>2026-05-02T21:07:59Z</time></trkpt>
</trkseg></trk>
<trk>
<name>lhtlr23</name>
<cmt>v</cmt>
<desc>Liers Sentier n°23 Pasay de la Commenne</desc>
<link href="https://chemins.be/liers/sentier/23"/><trkseg>
<trkpt lat="50.690679" lon="5.562966"><time>2026-05-02T21:07:59Z</time></trkpt>
<trkpt lat="50.691002" lon="5.562681"><time>2026-05-02T21:17:59Z</time></trkpt>
<trkpt lat="50.691491" lon="5.562723"><time>2026-05-02T21:27:59Z</time></trkpt>
<trkpt lat="50.691687" lon="5.563053"><time>2026-05-02T21:37:59Z</time></trkpt>
</trkseg>
</trk>
<trk>
<name>lhtlr23bis</name>
<cmt>s</cmt>
<desc>Liers Sentier n°23bis </desc>
<link href="https://chemins.be/liers/sentier/23bis"/><trkseg>
<trkpt lat="50.687048" lon="5.565986"><time>2026-05-02T20:17:59Z</time></trkpt>
<trkpt lat="50.688604" lon="5.565460"><time>2026-05-02T20:27:59Z</time></trkpt>
</trkseg>
</trk>
<trk>
<name>lhtlr24</name>
<cmt>d</cmt>
<desc>Liers Sentier n°24 Pasay du Rouwa</desc>
<link href="https://chemins.be/liers/sentier/24"/><trkseg>
<trkpt lat="50.689034" lon="5.564653"><time>2026-05-02T20:17:59Z</time></trkpt>
<trkpt lat="50.689197" lon="5.561429"><time>2026-05-02T20:27:59Z</time></trkpt>
</trkseg>
</trk>
<trk>
<name>lhtlr25</name>
<cmt>v</cmt>
<desc>Liers Sentier n°25 Pasay de la Haxhe qui Clappe</desc>
<link href="https://chemins.be/liers/sentier/25"/><trkseg>
<trkpt lat="50.690842" lon="5.564353"><time>2026-05-02T20:17:59Z</time></trkpt>
<trkpt lat="50.690664" lon="5.562918"><time>2026-05-02T20:27:59Z</time></trkpt>
<trkpt lat="50.690285" lon="5.560828"><time>2026-05-02T20:37:59Z</time></trkpt>
<trkpt lat="50.689996" lon="5.560324"><time>2026-05-02T20:47:59Z</time></trkpt>
</trkseg>
</trk>
<trk>
<name>lhtlr4</name>
<cmt>v</cmt>
<desc>Liers Chemin n°4 Ruelle des Fraisiers / Voie de Liége</desc>
<link href="https://chemins.be/liers/chemin/4"/><trkseg>
<trkpt lat="50.693492" lon="5.569603"><time>2026-05-02T20:17:59Z</time></trkpt>
<trkpt lat="50.693109" lon="5.569525"><time>2026-05-02T20:27:59Z</time></trkpt>
<trkpt lat="50.692642" lon="5.569088"><time>2026-05-02T20:37:59Z</time></trkpt>
<trkpt lat="50.692370" lon="5.568938"><time>2026-05-02T20:47:59Z</time></trkpt>
</trkseg>
</trk>
<trk>
<name>lhtlr6</name>
<cmt>v</cmt>
<desc>Liers Chemin n°6 Vieille Voie de Tongres</desc>
<link href="https://chemins.be/liers/chemin/6"/><trkseg>
<trkpt lat="50.693734" lon="5.552425"><time>2026-05-02T20:17:59Z</time></trkpt>
<trkpt lat="50.695131" lon="5.551300"><time>2026-05-02T20:27:59Z</time></trkpt>
<trkpt lat="50.697164" lon="5.549695"><time>2026-05-02T20:37:59Z</time></trkpt>
<trkpt lat="50.698312" lon="5.547644"><time>2026-05-02T20:47:59Z</time></trkpt>
</trkseg>
</trk>
<trk>
<name>lhtlr7</name>
<cmt>d</cmt>
<desc>Liers Chemin n°7 Voie de Villers</desc>
<link href="https://chemins.be/liers/chemin/7"/><trkseg>
<trkpt lat="50.697151" lon="5.549637"><time>2026-05-02T20:17:59Z</time></trkpt>
<trkpt lat="50.699276" lon="5.549251"><time>2026-05-02T20:27:59Z</time></trkpt>
</trkseg>
</trk>
<trk>
<name>lhtlr8</name>
<cmt>v</cmt>
<desc>Liers Chemin n°8 Hardisse Voie</desc>
<link href="https://chemins.be/liers/chemin/8"/><trkseg>
<trkpt lat="50.694291" lon="5.556232"><time>2026-05-02T20:17:59Z</time></trkpt>
<trkpt lat="50.694358" lon="5.556087"><time>2026-05-02T20:27:59Z</time></trkpt>
</trkseg></trk>
<trk>
<name>lhtlr8</name>
<cmt>d</cmt>
<desc>Liers Chemin n°8 Hardisse Voie</desc>
<link href="https://chemins.be/liers/chemin/8"/><trkseg>
<trkpt lat="50.694358" lon="5.556087"><time>2026-05-02T20:27:59Z</time></trkpt>
<trkpt lat="50.694328" lon="5.555969"><time>2026-05-02T20:37:59Z</time></trkpt>
<trkpt lat="50.694303" lon="5.555819"><time>2026-05-02T20:47:59Z</time></trkpt>
<trkpt lat="50.693781" lon="5.555214"><time>2026-05-02T20:57:59Z</time></trkpt>
</trkseg>
</trk>
<trk>
<name>lhtlr9</name>
<cmt>s</cmt>
<desc>Liers Chemin n°9 </desc>
<link href="https://chemins.be/liers/chemin/9"/><trkseg>
<trkpt lat="50.695202" lon="5.562052"><time>2026-05-02T20:17:59Z</time></trkpt>
<trkpt lat="50.696338" lon="5.563897"><time>2026-05-02T20:27:59Z</time></trkpt>
<trkpt lat="50.696604" lon="5.564850"><time>2026-05-02T20:37:59Z</time></trkpt>
<trkpt lat="50.697904" lon="5.567622"><time>2026-05-02T20:47:59Z</time></trkpt>
</trkseg>
</trk>
<trk>
<name>lhtlri1</name>
<cmt>v</cmt>
<desc>Liers Sentier n°i1 </desc>
<link href="https://chemins.be/liers/sentier/i1"/><trkseg>
<trkpt lat="50.697733" lon="5.567441"><time>2026-05-02T20:17:59Z</time></trkpt>
<trkpt lat="50.697859" lon="5.567529"><time>2026-05-02T20:27:59Z</time></trkpt>
<trkpt lat="50.698104" lon="5.567516"><time>2026-05-02T20:37:59Z</time></trkpt>
<trkpt lat="50.698114" lon="5.568092"><time>2026-05-02T20:47:59Z</time></trkpt>
<trkpt lat="50.698124" lon="5.568579"><time>2026-05-02T20:57:59Z</time></trkpt>
<trkpt lat="50.698323" lon="5.568587"><time>2026-05-02T21:07:59Z</time></trkpt>
<trkpt lat="50.698322" lon="5.568311"><time>2026-05-02T21:17:59Z</time></trkpt>
<trkpt lat="50.698342" lon="5.568305"><time>2026-05-02T21:27:59Z</time></trkpt>
<trkpt lat="50.698352" lon="5.568539"><time>2026-05-02T21:37:59Z</time></trkpt>
<trkpt lat="50.698407" lon="5.568508"><time>2026-05-02T21:47:59Z</time></trkpt>
</trkseg>
</trk>
<trk>
<name>lhtlri11</name>
<cmt>s</cmt>
<desc>Liers Sentier n°i11 Pazê di Filomé</desc>
<link href="https://chemins.be/liers/sentier/i11"/><trkseg>
<trkpt lat="50.683818" lon="5.572466"><time>2026-05-02T20:17:59Z</time></trkpt>
<trkpt lat="50.685735" lon="5.570953"><time>2026-05-02T20:27:59Z</time></trkpt>
<trkpt lat="50.685960" lon="5.571243"><time>2026-05-02T20:37:59Z</time></trkpt>
<trkpt lat="50.688441" lon="5.567896"><time>2026-05-02T20:47:59Z</time></trkpt>
<trkpt lat="50.688441" lon="5.567198"><time>2026-05-02T20:57:59Z</time></trkpt>
</trkseg>
</trk>
<trk>
<name>lhtlri2</name>
<cmt>v</cmt>
<desc>Liers Chemin n°i2 </desc>
<link href="https://chemins.be/liers/chemin/i2"/><trkseg>
<trkpt lat="50.697830" lon="5.577321"><time>2026-05-02T20:17:59Z</time></trkpt>
<trkpt lat="50.695721" lon="5.576583"><time>2026-05-02T20:27:59Z</time></trkpt>
</trkseg>
</trk>
<trk>
<name>lhtlri3</name>
<cmt>v</cmt>
<desc>Liers Chemin n°i3 </desc>
<link href="https://chemins.be/liers/chemin/i3"/><trkseg>
<trkpt lat="50.698427" lon="5.578990"><time>2026-05-02T20:17:59Z</time></trkpt>
<trkpt lat="50.698905" lon="5.579463"><time>2026-05-02T20:27:59Z</time></trkpt>
<trkpt lat="50.699226" lon="5.579523"><time>2026-05-02T20:37:59Z</time></trkpt>
<trkpt lat="50.700333" lon="5.580699"><time>2026-05-02T20:47:59Z</time></trkpt>
</trkseg>
</trk>
<trk>
<name>lhtlri4</name>
<cmt>v</cmt>
<desc>Liers Chemin n°i4 Ancienne Route Militaire / Route Militaire</desc>
<link href="https://chemins.be/liers/chemin/i4"/><trkseg>
<trkpt lat="50.697121" lon="5.559054"><time>2026-05-02T20:17:59Z</time></trkpt>
<trkpt lat="50.696249" lon="5.556231"><time>2026-05-02T20:27:59Z</time></trkpt>
<trkpt lat="50.695229" lon="5.551638"><time>2026-05-02T20:37:59Z</time></trkpt>
</trkseg>
</trk>
<trk>
<name>lhtlri5</name>
<cmt>v</cmt>
<desc>Liers Chemin n°i5 </desc>
<link href="https://chemins.be/liers/chemin/i5"/><trkseg>
<trkpt lat="50.693006" lon="5.568023"><time>2026-05-02T20:17:59Z</time></trkpt>
<trkpt lat="50.693009" lon="5.568590"><time>2026-05-02T20:27:59Z</time></trkpt>
</trkseg>
</trk>
<trk>
<name>lhtlri6</name>
<cmt>v</cmt>
<desc>Liers Chemin n°i6 </desc>
<link href="https://chemins.be/liers/chemin/i6"/><trkseg>
<trkpt lat="50.698374" lon="5.577527"><time>2026-05-02T20:17:59Z</time></trkpt>
<trkpt lat="50.701486" lon="5.578731"><time>2026-05-02T20:27:59Z</time></trkpt>
</trkseg>
</trk>
<trk>
<name>lhtlri7</name>
<cmt>v</cmt>
<desc>Liers Sentier n°i7 </desc>
<link href="https://chemins.be/liers/sentier/i7"/><trkseg>
<trkpt lat="50.697942" lon="5.560833"><time>2026-05-02T20:17:59Z</time></trkpt>
<trkpt lat="50.697830" lon="5.560940"><time>2026-05-02T20:27:59Z</time></trkpt>
</trkseg>
</trk>
<trk>
<name>lhtlri8</name>
<cmt>v</cmt>
<desc>Liers Chemin n°i8 </desc>
<link href="https://chemins.be/liers/chemin/i8"/><trkseg>
<trkpt lat="50.693242" lon="5.563300"><time>2026-05-02T20:17:59Z</time></trkpt>
<trkpt lat="50.693976" lon="5.562228"><time>2026-05-02T20:27:59Z</time></trkpt>
</trkseg>
</trk>
<trk>
<name>lhtlri9</name>
<cmt>v</cmt>
<desc>Liers Sentier n°i9 </desc>
<link href="https://chemins.be/liers/sentier/i9"/><trkseg>
<trkpt lat="50.700763" lon="5.554069"><time>2026-05-02T20:17:59Z</time></trkpt>
<trkpt lat="50.699947" lon="5.552764"><time>2026-05-02T20:27:59Z</time></trkpt>
<trkpt lat="50.699121" lon="5.551837"><time>2026-05-02T20:37:59Z</time></trkpt>
<trkpt lat="50.698784" lon="5.552455"><time>2026-05-02T20:47:59Z</time></trkpt>
<trkpt lat="50.698023" lon="5.552919"><time>2026-05-02T20:57:59Z</time></trkpt>
<trkpt lat="50.698012" lon="5.553296"><time>2026-05-02T21:07:59Z</time></trkpt>
<trkpt lat="50.697425" lon="5.554464"><time>2026-05-02T21:17:59Z</time></trkpt>
<trkpt lat="50.697284" lon="5.554539"><time>2026-05-02T21:27:59Z</time></trkpt>
<trkpt lat="50.696294" lon="5.556197"><time>2026-05-02T21:37:59Z</time></trkpt>
<trkpt lat="50.695718" lon="5.557159"><time>2026-05-02T21:47:59Z</time></trkpt>
</trkseg></trk>
<trk>
<name>lhtlri9</name>
<cmt>d</cmt>
<desc>Liers Sentier n°i9 </desc>
<link href="https://chemins.be/liers/sentier/i9"/><trkseg>
<trkpt lat="50.695718" lon="5.557159"><time>2026-05-02T21:47:59Z</time></trkpt>
<trkpt lat="50.695592" lon="5.557477"><time>2026-05-02T21:57:59Z</time></trkpt>
</trkseg>
</trk>
<trk>
<name>lhtlrL31</name>
<cmt>v</cmt>
<desc>Liers Chemin n°L31 RAVeL Ligne 31 / Rue Cité Lejeune</desc>
<link href="https://chemins.be/liers/chemin/L31"/><trkseg>
<trkpt lat="50.693778" lon="5.555313"><time>2026-05-02T20:17:59Z</time></trkpt>
<trkpt lat="50.695554" lon="5.557433"><time>2026-05-02T20:27:59Z</time></trkpt>
<trkpt lat="50.696916" lon="5.559059"><time>2026-05-02T20:37:59Z</time></trkpt>
<trkpt lat="50.697816" lon="5.560953"><time>2026-05-02T20:47:59Z</time></trkpt>
<trkpt lat="50.698023" lon="5.562017"><time>2026-05-02T20:57:59Z</time></trkpt>
<trkpt lat="50.698089" lon="5.562955"><time>2026-05-02T21:07:59Z</time></trkpt>
<trkpt lat="50.698095" lon="5.566061"><time>2026-05-02T21:17:59Z</time></trkpt>
</trkseg>
</trk>
<trk>
<name>lhtlrLv820</name>
<cmt>v</cmt>
<desc>Liers Chemin n°Lv820 Barrière Saint-Martin</desc>
<link href="https://chemins.be/liers/chemin/Lv820"/><trkseg>
<trkpt lat="50.704604" lon="5.572386"><time>2026-05-02T20:17:59Z</time></trkpt>
<trkpt lat="50.700364" lon="5.570519"><time>2026-05-02T20:27:59Z</time></trkpt>
</trkseg></trk>
<trk>
<name>lhtlrLv820</name>
<cmt>r</cmt>
<desc>Liers Chemin n°Lv820 Barrière Saint-Martin</desc>
<link href="https://chemins.be/liers/chemin/Lv820"/><trkseg>
<trkpt lat="50.700364" lon="5.570519"><time>2026-05-02T20:27:59Z</time></trkpt>
<trkpt lat="50.698475" lon="5.575261"><time>2026-05-02T20:37:59Z</time></trkpt>
</trkseg></trk>
<trk>
<name>lhtlrLv820</name>
<cmt>s</cmt>
<desc>Liers Chemin n°Lv820 Barrière Saint-Martin</desc>
<link href="https://chemins.be/liers/chemin/Lv820"/><trkseg>
<trkpt lat="50.698475" lon="5.575261"><time>2026-05-02T20:37:59Z</time></trkpt>
<trkpt lat="50.698004" lon="5.581723"><time>2026-05-02T20:47:59Z</time></trkpt>
</trkseg>
</trk>
</gpx>